Wetterdaten: aktuell Sonntag, 01.03.2015 00:42
Datum Zeit Temperatur Feuchte Luftdruck Regen Wind Richtung Richtung Taupunkt Windchill
01.03.2015 00:42 4,7 C 65 % 1007,2 hPa 0,0 l/m 27,1 km/h (4 Bft) SO 145 -1,3 C -0,1 C
28.02.2015 23:42 4,5 C 67 % 1008,2 hPa 0,0 l/m 35,5 km/h (5 Bft) SO22.5 135 -1,1 C -1,1 C
28.02.2015 22:42 4,7 C 64 % 1009,2 hPa 0,0 l/m 31,3 km/h (5 Bft) SO 130 -1,5 C -0,5 C
28.02.2015 21:42 4,7 C 66 % 1010,3 hPa 0,0 l/m 37,4 km/h (5 Bft) SO 140 -1,1 C -0,9 C
28.02.2015 20:42 4,5 C 67 % 1012,3 hPa 0,0 l/m 30,5 km/h (5 Bft) SO 135 -1,1 C -0,6 C
28.02.2015 19:42 4,5 C 67 % 1012,3 hPa 0,0 l/m 28,5 km/h (4 Bft) SO45 145 -1,1 C -0,5 C
28.02.2015 18:42 5,2 C 66 % 1013,3 hPa 0,0 l/m 21,7 km/h (4 Bft) SO 145 -0,6 C 1,1 C
28.02.2015 17:42 6,5 C 62 % 1013,2 hPa 0,0 l/m 26,6 km/h (4 Bft) SO22.5 145 -0,2 C 2,3 C
28.02.2015 16:42 8,0 C 55 % 1014,1 hPa 0,0 l/m 26,4 km/h (4 Bft) S-SO45 150 -0,5 C 4,3 C
28.02.2015 15:42 8,1 C 56 % 1015,1 hPa 0,0 l/m 39,2 km/h (6 Bft) S-SO 160 -0,1 C 3,5 C
28.02.2015 14:42 8,2 C 56 % 1016,1 hPa 0,0 l/m 29,6 km/h (5 Bft) S-SO45 155 -0,0 C 4,3 C
28.02.2015 13:42 7,9 C 62 % 1017,1 hPa 0,0 l/m 25,0 km/h (4 Bft) SO 145 1,1 C 4,2 C
28.02.2015 12:42 6,3 C 68 % 1018,3 hPa 0,0 l/m 21,5 km/h (4 Bft) SO 145 0,8 C 2,5 C
28.02.2015 11:42 4,6 C 76 % 1018,5 hPa 0,0 l/m 20,7 km/h (4 Bft) S-SO 150 0,7 C 0,5 C
28.02.2015 10:42 3,3 C 86 % 1019,6 hPa 0,0 l/m 19,5 km/h (3 Bft) SO67.5 145 1,2 C -1,0 C
28.02.2015 09:42 0,8 C 98 % 1020,9 hPa 0,4 l/m 13,3 km/h (3 Bft) SO45 145 0,5 C -3,1 C
28.02.2015 08:42 -0,5 C 98 % 1021,0 hPa 0,0 l/m 14,8 km/h (3 Bft) SO22.5 125 -0,8 C -5,0 C
28.02.2015 07:42 -1,3 C 97 % 1020,0 hPa 0,0 l/m 9,4 km/h (2 Bft) SO67.5 130 -1,7 C -4,7 C
28.02.2015 06:42 -1,5 C 97 % 1020,0 hPa 0,0 l/m 7,2 km/h (2 Bft) SO22.5 130 -1,9 C -4,2 C
28.02.2015 05:42 -1,8 C 96 % 1020,1 hPa 0,0 l/m 5,4 km/h (1 Bft) O-SO45 120 -2,4 C -3,8 C
28.02.2015 04:42 -1,4 C 95 % 1021,1 hPa 0,0 l/m 3,6 km/h (1 Bft) O-SO 115 -2,1 C -1,4 C
28.02.2015 03:42 -1,2 C 94 % 1021,0 hPa 0,0 l/m 4,3 km/h (1 Bft) S-SO22.5 160 -2,0 C -1,2 C
28.02.2015 02:42 -0,8 C 94 % 1021,0 hPa 0,0 l/m 6,5 km/h (2 Bft) SO 135 -1,6 C -3,1 C
28.02.2015 01:42 -0,4 C 92 % 1022,0 hPa 0,0 l/m 3,8 km/h (1 Bft) S-SO 160 -1,5 C -0,4 C
28.02.2015 01:00 -0,2 C 90 % 1020,9 hPa 0,0 l/m 0,4 km/h (0 Bft) SW45 215 -1,6 C -0,2 C
_ Min-Zeit 05:24 16:06 00:27 - 01:00 - - 05:24 07:54
Minimum _ -1,8 C 52 % 1007,2 hPa - 0,4 km/h (0 Bft) - - -2,5 C -6,0 C
_ Max-Zeit 15:27 08:30 01:57 09:42 22:09 - - 12:09 16:30
Maximum _ 8,5 C 98 % 1022,0 hPa 0,4 l/m 46,2 km/h
S-SO (6 Bft)
- - 1,6 C 5,2 C
Durchschnitt _ 3,0 C 78 % 1016,7 hPa #0,4 l/m 18,7 km/h (3 Bft) SO - -0,8 C -0,4 C